sensor_id;sensor_type;location;lat;lon;timestamp;pressure;altitude;pressure_sealevel;temperature;humidity
17525;BME280;40431;52.198;9.902;2024-02-21T00:00:13;101211.63;;;7.88;100.00
17525;BME280;40431;52.198;9.902;2024-02-21T00:02:44;101213.31;;;7.91;100.00
17525;BME280;40431;52.198;9.902;2024-02-21T00:05:16;101204.41;;;7.89;100.00
17525;BME280;40431;52.198;9.902;2024-02-21T00:07:58;101217.72;;;7.93;100.00
17525;BME280;40431;52.198;9.902;2024-02-21T00:10:36;101205.22;;;7.91;100.00
17525;BME280;40431;52.198;9.902;2024-02-21T00:13:04;101205.16;;;7.92;100.00
17525;BME280;40431;52.198;9.902;2024-02-21T00:15:33;101206.06;;;7.93;100.00
17525;BME280;40431;52.198;9.902;2024-02-21T00:18:07;101200.88;;;7.86;100.00
17525;BME280;40431;52.198;9.902;2024-02-21T00:20:39;101202.41;;;7.94;100.00
17525;BME280;40431;52.198;9.902;2024-02-21T00:23:10;101189.84;;;7.93;100.00
17525;BME280;40431;52.198;9.902;2024-02-21T00:25:41;101190.03;;;7.88;100.00
17525;BME280;40431;52.198;9.902;2024-02-21T00:28:11;101189.94;;;7.90;100.00
17525;BME280;40431;52.198;9.902;2024-02-21T00:30:40;101185.59;;;7.87;100.00
17525;BME280;40431;52.198;9.902;2024-02-21T00:33:08;101178.47;;;7.84;100.00
17525;BME280;40431;52.198;9.902;2024-02-21T00:35:35;101180.19;;;7.87;100.00
17525;BME280;40431;52.198;9.902;2024-02-21T00:38:03;101172.09;;;7.87;100.00
17525;BME280;40431;52.198;9.902;2024-02-21T00:40:35;101179.97;;;7.92;100.00
17525;BME280;40431;52.198;9.902;2024-02-21T00:43:03;101171.25;;;7.85;100.00
17525;BME280;40431;52.198;9.902;2024-02-21T00:45:30;101172.94;;;7.88;100.00
17525;BME280;40431;52.198;9.902;2024-02-21T00:47:59;101168.47;;;7.86;100.00
17525;BME280;40431;52.198;9.902;2024-02-21T00:50:27;101168.47;;;7.86;100.00
17525;BME280;40431;52.198;9.902;2024-02-21T00:52:55;101167.41;;;7.91;100.00
17525;BME280;40431;52.198;9.902;2024-02-21T00:55:22;101166.63;;;7.89;100.00
17525;BME280;40431;52.198;9.902;2024-02-21T00:57:49;101164.78;;;7.89;100.00
17525;BME280;40431;52.198;9.902;2024-02-21T01:00:18;101166.72;;;7.85;100.00
17525;BME280;40431;52.198;9.902;2024-02-21T01:02:48;101172.94;;;7.88;100.00
17525;BME280;40431;52.198;9.902;2024-02-21T01:05:17;101163.00;;;7.88;100.00
17525;BME280;40431;52.198;9.902;2024-02-21T01:07:46;101160.31;;;7.88;100.00
17525;BME280;40431;52.198;9.902;2024-02-21T01:10:15;101152.28;;;7.86;100.00
17525;BME280;40431;52.198;9.902;2024-02-21T01:12:46;101148.66;;;7.88;100.00
17525;BME280;40431;52.198;9.902;2024-02-21T01:15:14;101144.88;;;7.92;100.00
17525;BME280;40431;52.198;9.902;2024-02-21T01:17:45;101143.00;;;7.94;100.00
17525;BME280;40431;52.198;9.902;2024-02-21T01:20:14;101134.84;;;7.95;100.00
17525;BME280;40431;52.198;9.902;2024-02-21T01:22:48;101142.88;;;7.97;100.00
17525;BME280;40431;52.198;9.902;2024-02-21T01:25:16;101142.88;;;7.97;100.00
17525;BME280;40431;52.198;9.902;2024-02-21T01:27:44;101137.34;;;8.00;100.00
17525;BME280;40431;52.198;9.902;2024-02-21T01:30:12;101123.91;;;7.98;100.00
17525;BME280;40431;52.198;9.902;2024-02-21T01:32:39;101102.31;;;7.98;100.00
17525;BME280;40431;52.198;9.902;2024-02-21T01:35:10;101116.75;;;7.97;100.00
17525;BME280;40431;52.198;9.902;2024-02-21T01:37:40;101118.34;;;8.03;100.00
17525;BME280;40431;52.198;9.902;2024-02-21T01:40:17;101111.28;;;7.99;100.00
17525;BME280;40431;52.198;9.902;2024-02-21T01:42:45;101113.88;;;8.02;100.00
17525;BME280;40431;52.198;9.902;2024-02-21T01:45:13;101112.09;;;8.01;100.00
17525;BME280;40431;52.198;9.902;2024-02-21T01:47:41;101101.47;;;7.96;100.00
17525;BME280;40431;52.198;9.902;2024-02-21T01:50:10;101106.16;;;7.93;100.00
17525;BME280;40431;52.198;9.902;2024-02-21T01:52:38;101105.00;;;7.98;100.00
17525;BME280;40431;52.198;9.902;2024-02-21T01:55:07;101108.56;;;7.99;100.00
17525;BME280;40431;52.198;9.902;2024-02-21T01:57:38;101111.16;;;8.02;100.00
17525;BME280;40431;52.198;9.902;2024-02-21T02:00:07;101120.34;;;7.98;100.00
17525;BME280;40431;52.198;9.902;2024-02-21T02:02:37;101110.59;;;7.94;100.00
17525;BME280;40431;52.198;9.902;2024-02-21T02:05:07;101108.56;;;7.99;100.00
17525;BME280;40431;52.198;9.902;2024-02-21T02:07:35;101096.13;;;7.95;100.00
17525;BME280;40431;52.198;9.902;2024-02-21T02:10:04;101096.06;;;7.96;100.00
17525;BME280;40431;52.198;9.902;2024-02-21T02:12:37;101088.88;;;7.97;100.00
17525;BME280;40431;52.198;9.902;2024-02-21T02:15:09;101089.09;;;7.91;100.00
17525;BME280;40431;52.198;9.902;2024-02-21T02:17:37;101081.56;;;7.99;100.00
17525;BME280;40431;52.198;9.902;2024-02-21T02:20:06;101076.16;;;7.99;100.00
17525;BME280;40431;52.198;9.902;2024-02-21T02:22:37;101070.09;;;7.94;100.00
17525;BME280;40431;52.198;9.902;2024-02-21T02:25:08;101063.63;;;7.98;100.00
17525;BME280;40431;52.198;9.902;2024-02-21T02:27:42;101067.13;;;8.00;100.00
17525;BME280;40431;52.198;9.902;2024-02-21T02:30:14;101061.03;;;7.95;100.00
17525;BME280;40431;52.198;9.902;2024-02-21T02:32:45;101065.50;;;7.96;100.00
17525;BME280;40431;52.198;9.902;2024-02-21T02:35:13;101062.56;;;8.02;100.00
17525;BME280;40431;52.198;9.902;2024-02-21T02:37:48;101058.00;;;8.02;100.00
17525;BME280;40431;52.198;9.902;2024-02-21T02:40:18;101050.75;;;8.05;100.00
17525;BME280;40431;52.198;9.902;2024-02-21T02:42:49;101050.53;;;8.09;100.00
17525;BME280;40431;52.198;9.902;2024-02-21T02:45:21;101030.69;;;8.10;100.00
17525;BME280;40431;52.198;9.902;2024-02-21T02:47:52;101022.91;;;8.02;100.00
17525;BME280;40431;52.198;9.902;2024-02-21T02:50:21;101025.59;;;8.02;100.00
17525;BME280;40431;52.198;9.902;2024-02-21T02:52:50;101026.69;;;7.98;100.00
17525;BME280;40431;52.198;9.902;2024-02-21T02:55:22;101032.63;;;8.07;100.00
17525;BME280;40431;52.198;9.902;2024-02-21T02:57:52;101019.28;;;8.03;100.00
17525;BME280;40431;52.198;9.902;2024-02-21T03:00:19;101014.81;;;8.02;100.00
17525;BME280;40431;52.198;9.902;2024-02-21T03:02:49;101012.19;;;8.01;100.00
17525;BME280;40431;52.198;9.902;2024-02-21T03:05:18;101014.88;;;8.01;100.00
17525;BME280;40431;52.198;9.902;2024-02-21T03:07:50;101013.13;;;8.00;100.00
17525;BME280;40431;52.198;9.902;2024-02-21T03:10:22;101014.88;;;8.01;100.00
17525;BME280;40431;52.198;9.902;2024-02-21T03:12:50;101014.72;;;8.04;100.00
17525;BME280;40431;52.198;9.902;2024-02-21T03:15:19;101002.38;;;7.98;100.00
17525;BME280;40431;52.198;9.902;2024-02-21T03:17:46;101000.53;;;7.99;100.00
17525;BME280;40431;52.198;9.902;2024-02-21T03:20:14;101000.28;;;8.05;100.00
17525;BME280;40431;52.198;9.902;2024-02-21T03:22:45;100996.66;;;8.06;100.00
17525;BME280;40431;52.198;9.902;2024-02-21T03:25:13;100988.63;;;8.05;100.00
17525;BME280;40431;52.198;9.902;2024-02-21T03:27:42;100971.44;;;8.06;100.00
17525;BME280;40431;52.198;9.902;2024-02-21T03:30:10;100973.28;;;8.05;100.00
17525;BME280;40431;52.198;9.902;2024-02-21T03:32:38;100959.09;;;8.00;100.00
17525;BME280;40431;52.198;9.902;2024-02-21T03:35:06;100950.75;;;8.06;100.00
17525;BME280;40431;52.198;9.902;2024-02-21T03:37:35;100945.25;;;8.08;100.00
17525;BME280;40431;52.198;9.902;2024-02-21T03:40:06;100936.06;;;8.12;100.00
17525;BME280;40431;52.198;9.902;2024-02-21T03:42:34;100924.53;;;8.08;100.00
17525;BME280;40431;52.198;9.902;2024-02-21T03:45:03;100920.13;;;8.06;100.00
17525;BME280;40431;52.198;9.902;2024-02-21T03:47:31;100910.97;;;8.10;100.00
17525;BME280;40431;52.198;9.902;2024-02-21T03:49:59;100909.13;;;8.10;100.00
17525;BME280;40431;52.198;9.902;2024-02-21T03:52:26;100902.81;;;8.11;100.00
17525;BME280;40431;52.198;9.902;2024-02-21T03:54:58;100904.56;;;8.12;100.00
17525;BME280;40431;52.198;9.902;2024-02-21T03:57:26;100892.13;;;8.08;100.00
17525;BME280;40431;52.198;9.902;2024-02-21T03:59:57;100890.22;;;8.10;100.00
17525;BME280;40431;52.198;9.902;2024-02-21T04:02:26;100901.13;;;8.09;100.00
17525;BME280;40431;52.198;9.902;2024-02-21T04:04:54;100879.84;;;8.01;100.00
17525;BME280;40431;52.198;9.902;2024-02-21T04:07:21;100883.28;;;8.05;100.00
17525;BME280;40431;52.198;9.902;2024-02-21T04:09:49;100896.81;;;8.05;100.00
17525;BME280;40431;52.198;9.902;2024-02-21T04:12:16;100906.44;;;8.10;100.00
17525;BME280;40431;52.198;9.902;2024-02-21T04:14:44;100900.88;;;8.13;100.00
17525;BME280;40431;52.198;9.902;2024-02-21T04:17:12;100902.66;;;8.14;100.00
17525;BME280;40431;52.198;9.902;2024-02-21T04:19:41;100907.25;;;8.12;100.00
17525;BME280;40431;52.198;9.902;2024-02-21T04:22:10;100912.66;;;8.12;100.00
17525;BME280;40431;52.198;9.902;2024-02-21T04:24:39;100919.78;;;8.13;100.00
17525;BME280;40431;52.198;9.902;2024-02-21T04:27:07;100922.66;;;8.10;100.00
17525;BME280;40431;52.198;9.902;2024-02-21T04:29:35;100931.69;;;8.09;100.00
17525;BME280;40431;52.198;9.902;2024-02-21T04:32:03;100928.91;;;8.11;100.00
17525;BME280;40431;52.198;9.902;2024-02-21T04:34:32;100923.59;;;8.09;100.00
17525;BME280;40431;52.198;9.902;2024-02-21T04:37:01;100926.28;;;8.09;100.00
17525;BME280;40431;52.198;9.902;2024-02-21T04:39:30;100931.44;;;8.15;100.00
17525;BME280;40431;52.198;9.902;2024-02-21T04:41:57;100933.19;;;8.16;100.00
17525;BME280;40431;52.198;9.902;2024-02-21T04:44:25;100935.22;;;8.11;100.00
17525;BME280;40431;52.198;9.902;2024-02-21T04:46:53;100927.09;;;8.11;100.00
17525;BME280;40431;52.198;9.902;2024-02-21T04:49:20;100926.28;;;8.09;100.00
17525;BME280;40431;52.198;9.902;2024-02-21T04:51:48;100928.31;;;8.04;100.00
17525;BME280;40431;52.198;9.902;2024-02-21T04:54:17;100932.69;;;8.07;100.00
17525;BME280;40431;52.198;9.902;2024-02-21T04:56:45;100940.63;;;8.11;100.00
17525;BME280;40431;52.198;9.902;2024-02-21T04:59:12;100933.44;;;8.10;100.00
17525;BME280;40431;52.198;9.902;2024-02-21T05:01:38;100931.56;;;8.12;100.00
17525;BME280;40431;52.198;9.902;2024-02-21T05:04:05;100940.63;;;8.11;100.00
17525;BME280;40431;52.198;9.902;2024-02-21T05:06:31;100926.28;;;8.09;100.00
17525;BME280;40431;52.198;9.902;2024-02-21T05:08:58;100936.22;;;8.09;100.00
17525;BME280;40431;52.198;9.902;2024-02-21T05:11:26;100930.53;;;8.15;100.00
17525;BME280;40431;52.198;9.902;2024-02-21T05:13:53;100933.31;;;8.13;100.00
17525;BME280;40431;52.198;9.902;2024-02-21T05:16:19;100933.97;;;8.18;100.00
17525;BME280;40431;52.198;9.902;2024-02-21T05:18:45;100936.16;;;8.10;100.00
17525;BME280;40431;52.198;9.902;2024-02-21T05:21:12;100928.03;;;8.10;100.00
17525;BME280;40431;52.198;9.902;2024-02-21T05:23:39;100930.59;;;8.13;100.00
17525;BME280;40431;52.198;9.902;2024-02-21T05:26:05;100929.66;;;8.14;100.00
17525;BME280;40431;52.198;9.902;2024-02-21T05:28:33;100922.50;;;8.13;100.00
17525;BME280;40431;52.198;9.902;2024-02-21T05:30:59;100929.50;;;8.17;100.00
17525;BME280;40431;52.198;9.902;2024-02-21T05:33:26;100927.91;;;8.13;100.00
17525;BME280;40431;52.198;9.902;2024-02-21T05:35:53;100919.78;;;8.13;100.00
17525;BME280;40431;52.198;9.902;2024-02-21T05:38:19;100912.66;;;8.12;100.00
17525;BME280;40431;52.198;9.902;2024-02-21T05:40:46;100915.63;;;8.06;100.00
17525;BME280;40431;52.198;9.902;2024-02-21T05:43:13;100908.31;;;8.08;100.00
17525;BME280;40431;52.198;9.902;2024-02-21T05:45:41;100913.53;;;8.13;100.00
17525;BME280;40431;52.198;9.902;2024-02-21T05:48:07;100917.09;;;8.13;100.00
17525;BME280;40431;52.198;9.902;2024-02-21T05:50:34;100908.13;;;8.13;100.00
17525;BME280;40431;52.198;9.902;2024-02-21T05:53:00;100901.03;;;8.10;100.00
17525;BME280;40431;52.198;9.902;2024-02-21T05:55:27;100893.75;;;8.12;100.00
17525;BME280;40431;52.198;9.902;2024-02-21T05:57:54;100889.38;;;8.10;100.00
17525;BME280;40431;52.198;9.902;2024-02-21T06:00:21;100896.47;;;8.12;100.00
17525;BME280;40431;52.198;9.902;2024-02-21T06:02:48;100890.22;;;8.10;100.00
17525;BME280;40431;52.198;9.902;2024-02-21T06:05:15;100888.47;;;8.09;100.00
17525;BME280;40431;52.198;9.902;2024-02-21T06:07:41;100892.13;;;8.08;100.00
17525;BME280;40431;52.198;9.902;2024-02-21T06:10:08;100890.38;;;8.07;100.00
17525;BME280;40431;52.198;9.902;2024-02-21T06:12:35;100877.81;;;8.06;100.00
17525;BME280;40431;52.198;9.902;2024-02-21T06:15:01;100880.38;;;8.09;100.00
17525;BME280;40431;52.198;9.902;2024-02-21T06:17:28;100885.84;;;8.08;100.00
17525;BME280;40431;52.198;9.902;2024-02-21T06:19:56;100883.38;;;8.03;100.00
17525;BME280;40431;52.198;9.902;2024-02-21T06:22:22;100878.75;;;8.05;100.00
17525;BME280;40431;52.198;9.902;2024-02-21T06:24:49;100877.00;;;8.04;100.00
17525;BME280;40431;52.198;9.902;2024-02-21T06:27:15;100876.22;;;8.02;100.00
17525;BME280;40431;52.198;9.902;2024-02-21T06:29:42;100880.66;;;8.03;100.00
17525;BME280;40431;52.198;9.902;2024-02-21T06:32:08;100879.69;;;8.04;100.00
17525;BME280;40431;52.198;9.902;2024-02-21T06:34:35;100881.72;;;7.99;100.00
17525;BME280;40431;52.198;9.902;2024-02-21T06:37:03;100884.44;;;7.99;100.00
17525;BME280;40431;52.198;9.902;2024-02-21T06:39:29;100871.94;;;7.96;100.00
17525;BME280;40431;52.198;9.902;2024-02-21T06:41:56;100870.94;;;7.99;100.00
17525;BME280;40431;52.198;9.902;2024-02-21T06:44:22;100865.53;;;7.99;100.00
17525;BME280;40431;52.198;9.902;2024-02-21T06:46:49;100858.50;;;7.95;100.00
17525;BME280;40431;52.198;9.902;2024-02-21T06:49:15;100861.13;;;7.96;100.00
17525;BME280;40431;52.198;9.902;2024-02-21T06:51:42;100852.44;;;7.90;100.00
17525;BME280;40431;52.198;9.902;2024-02-21T06:54:10;100855.13;;;7.90;100.00
17525;BME280;40431;52.198;9.902;2024-02-21T06:56:37;100848.81;;;7.91;100.00
17525;BME280;40431;52.198;9.902;2024-02-21T06:59:03;100860.41;;;7.93;100.00
17525;BME280;40431;52.198;9.902;2024-02-21T07:01:30;100859.81;;;7.86;100.00
17525;BME280;40431;52.198;9.902;2024-02-21T07:03:56;100860.94;;;7.80;100.00
17525;BME280;40431;52.198;9.902;2024-02-21T07:06:23;100863.59;;;7.82;100.00
17525;BME280;40431;52.198;9.902;2024-02-21T07:08:49;100871.75;;;7.80;100.00
17525;BME280;40431;52.198;9.902;2024-02-21T07:11:18;100876.13;;;7.83;100.00
17525;BME280;40431;52.198;9.902;2024-02-21T07:13:44;100893.09;;;7.86;100.00
17525;BME280;40431;52.198;9.902;2024-02-21T07:16:11;100886.75;;;7.88;100.00
17525;BME280;40431;52.198;9.902;2024-02-21T07:18:37;100876.63;;;7.93;100.00
17525;BME280;40431;52.198;9.902;2024-02-21T07:21:04;100888.34;;;7.92;100.00
17525;BME280;40431;52.198;9.902;2024-02-21T07:23:30;100883.91;;;7.91;100.00
17525;BME280;40431;52.198;9.902;2024-02-21T07:25:57;100888.22;;;7.95;100.00
17525;BME280;40431;52.198;9.902;2024-02-21T07:28:24;100886.50;;;7.94;100.00
17525;BME280;40431;52.198;9.902;2024-02-21T07:30:51;100880.00;;;7.98;100.00
17525;BME280;40431;52.198;9.902;2024-02-21T07:33:17;100874.72;;;7.95;100.00
17525;BME280;40431;52.198;9.902;2024-02-21T07:35:44;100871.06;;;7.96;100.00
17525;BME280;40431;52.198;9.902;2024-02-21T07:38:10;100864.66;;;7.98;100.00
17525;BME280;40431;52.198;9.902;2024-02-21T07:40:37;100861.88;;;8.00;100.00
17525;BME280;40431;52.198;9.902;2024-02-21T07:43:04;100874.22;;;8.06;100.00
17525;BME280;40431;52.198;9.902;2024-02-21T07:45:32;100870.66;;;8.05;100.00
17525;BME280;40431;52.198;9.902;2024-02-21T07:47:58;100869.78;;;8.05;100.00
17525;BME280;40431;52.198;9.902;2024-02-21T07:50:24;100873.22;;;8.08;100.00
17525;BME280;40431;52.198;9.902;2024-02-21T07:52:51;100875.19;;;8.05;100.00
17525;BME280;40431;52.198;9.902;2024-02-21T07:55:18;100879.63;;;8.06;100.00
17525;BME280;40431;52.198;9.902;2024-02-21T07:57:46;100879.59;;;8.07;100.00
17525;BME280;40431;52.198;9.902;2024-02-21T08:00:14;100877.66;;;8.09;100.00
17525;BME280;40431;52.198;9.902;2024-02-21T08:02:48;100879.44;;;8.10;100.00
17525;BME280;40431;52.198;9.902;2024-02-21T08:05:16;100876.72;;;8.10;100.00
17525;BME280;40431;52.198;9.902;2024-02-21T08:07:44;100880.25;;;8.12;100.00
17525;BME280;40431;52.198;9.902;2024-02-21T08:10:12;100875.50;;;8.17;100.00
17525;BME280;40431;52.198;9.902;2024-02-21T08:12:43;100872.78;;;8.17;100.00
17525;BME280;40431;52.198;9.902;2024-02-21T08:15:13;100878.00;;;8.22;100.00
17525;BME280;40431;52.198;9.902;2024-02-21T08:17:41;100869.81;;;8.24;100.00
17525;BME280;40431;52.198;9.902;2024-02-21T08:20:27;100875.22;;;8.24;100.00
17525;BME280;40431;52.198;9.902;2024-02-21T08:23:00;100875.97;;;8.27;100.00
17525;BME280;40431;52.198;9.902;2024-02-21T08:25:39;100873.25;;;8.27;100.00
17525;BME280;40431;52.198;9.902;2024-02-21T08:28:08;100876.97;;;8.25;100.00
17525;BME280;40431;52.198;9.902;2024-02-21T08:30:35;100874.03;;;8.29;100.00
17525;BME280;40431;52.198;9.902;2024-02-21T08:33:03;100874.94;;;8.30;100.00
17525;BME280;40431;52.198;9.902;2024-02-21T08:35:33;100870.25;;;8.33;100.00
17525;BME280;40431;52.198;9.902;2024-02-21T08:38:01;100871.81;;;8.39;100.00
17525;BME280;40431;52.198;9.902;2024-02-21T08:40:29;100861.66;;;8.44;100.00
17525;BME280;40431;52.198;9.902;2024-02-21T08:42:57;100870.59;;;8.46;100.00
17525;BME280;40431;52.198;9.902;2024-02-21T08:45:26;100859.63;;;8.49;100.00
17525;BME280;40431;52.198;9.902;2024-02-21T08:47:54;100854.09;;;8.52;100.00
17525;BME280;40431;52.198;9.902;2024-02-21T08:50:22;100848.53;;;8.56;100.00
17525;BME280;40431;52.198;9.902;2024-02-21T08:52:53;100844.72;;;8.60;100.00
17525;BME280;40431;52.198;9.902;2024-02-21T08:55:22;100840.81;;;8.67;100.00
17525;BME280;40431;52.198;9.902;2024-02-21T08:57:50;100840.47;;;8.73;100.00
17525;BME280;40431;52.198;9.902;2024-02-21T09:00:17;100835.72;;;8.78;100.00
17525;BME280;40431;52.198;9.902;2024-02-21T09:02:46;100831.78;;;8.85;100.00
17525;BME280;40431;52.198;9.902;2024-02-21T09:05:13;100829.09;;;8.85;100.00
17525;BME280;40431;52.198;9.902;2024-02-21T09:07:40;100816.34;;;8.88;100.00
17525;BME280;40431;52.198;9.902;2024-02-21T09:10:09;100823.69;;;8.85;100.00
17525;BME280;40431;52.198;9.902;2024-02-21T09:12:35;100822.84;;;8.83;100.00
17525;BME280;40431;52.198;9.902;2024-02-21T09:15:02;100823.81;;;8.82;100.00
17525;BME280;40431;52.198;9.902;2024-02-21T09:17:28;100827.31;;;8.84;100.00
17525;BME280;40431;52.198;9.902;2024-02-21T09:19:55;100822.03;;;8.81;100.00
17525;BME280;40431;52.198;9.902;2024-02-21T09:22:24;100828.19;;;8.85;100.00
17525;BME280;40431;52.198;9.902;2024-02-21T09:24:50;100827.16;;;8.88;100.00
17525;BME280;40431;52.198;9.902;2024-02-21T09:27:18;100820.72;;;8.90;100.00
17525;BME280;40431;52.198;9.902;2024-02-21T09:29:45;100821.47;;;8.94;100.00
17525;BME280;40431;52.198;9.902;2024-02-21T09:32:12;100827.56;;;8.97;100.00
17525;BME280;40431;52.198;9.902;2024-02-21T09:34:41;100825.69;;;8.99;100.00
17525;BME280;40431;52.198;9.902;2024-02-21T09:37:14;100820.09;;;9.02;100.00
17525;BME280;40431;52.198;9.902;2024-02-21T09:39:44;100812.81;;;9.05;100.00
17525;BME280;40431;52.198;9.902;2024-02-21T09:42:14;100815.59;;;9.03;100.00
17525;BME280;40431;52.198;9.902;2024-02-21T09:44:48;100812.63;;;9.08;100.00
17525;BME280;40431;52.198;9.902;2024-02-21T09:47:24;100804.44;;;9.09;100.00
17525;BME280;40431;52.198;9.902;2024-02-21T09:49:54;100806.66;;;9.18;100.00
17525;BME280;40431;52.198;9.902;2024-02-21T09:52:23;100803.66;;;9.25;100.00
17525;BME280;40431;52.198;9.902;2024-02-21T09:55:47;100801.69;;;9.28;100.00
17525;BME280;40431;52.198;9.902;2024-02-21T09:57:58;100798.50;;;9.38;100.00
17525;BME280;40431;52.198;9.902;2024-02-21T10:00:38;100798.50;;;9.38;100.00
17525;BME280;40431;52.198;9.902;2024-02-21T10:03:06;100801.84;;;9.43;100.00
17525;BME280;40431;52.198;9.902;2024-02-21T10:05:36;100794.28;;;9.49;100.00
17525;BME280;40431;52.198;9.902;2024-02-21T10:08:14;100789.50;;;9.55;100.00
17525;BME280;40431;52.198;9.902;2024-02-21T10:10:47;100793.94;;;9.56;100.00
17525;BME280;40431;52.198;9.902;2024-02-21T10:13:35;100792.97;;;9.57;100.00
17525;BME280;40431;52.198;9.902;2024-02-21T10:16:15;100783.56;;;9.64;100.00
17525;BME280;40431;52.198;9.902;2024-02-21T10:18:45;100789.97;;;9.63;100.00
17525;BME280;40431;52.198;9.902;2024-02-21T10:21:18;100776.06;;;9.69;100.00
17525;BME280;40431;52.198;9.902;2024-02-21T10:23:57;100777.66;;;9.73;100.00
17525;BME280;40431;52.198;9.902;2024-02-21T10:26:25;100774.00;;;9.74;100.00
17525;BME280;40431;52.198;9.902;2024-02-21T10:29:01;100768.16;;;9.82;100.00
17525;BME280;40431;52.198;9.902;2024-02-21T10:31:35;100756.47;;;9.81;100.00
17525;BME280;40431;52.198;9.902;2024-02-21T10:34:09;100757.69;;;9.92;100.00
17525;BME280;40431;52.198;9.902;2024-02-21T10:37:01;100759.84;;;10.02;100.00
17525;BME280;40431;52.198;9.902;2024-02-21T10:39:31;100745.91;;;10.09;100.00
17525;BME280;40431;52.198;9.902;2024-02-21T10:42:02;100743.13;;;10.10;100.00
17525;BME280;40431;52.198;9.902;2024-02-21T10:45:00;100735.09;;;10.09;100.00
17525;BME280;40431;52.198;9.902;2024-02-21T10:47:37;100727.91;;;10.08;100.00
17525;BME280;40431;52.198;9.902;2024-02-21T10:50:12;100723.03;;;10.14;100.00
17525;BME280;40431;52.198;9.902;2024-02-21T10:52:50;100718.59;;;10.13;100.00
17525;BME280;40431;52.198;9.902;2024-02-21T10:55:25;100712.88;;;10.18;100.00
17525;BME280;40431;52.198;9.902;2024-02-21T10:57:59;100706.50;;;10.19;100.00
17525;BME280;40431;52.198;9.902;2024-02-21T11:00:36;100699.88;;;10.25;100.00
17525;BME280;40431;52.198;9.902;2024-02-21T11:03:10;100705.28;;;10.25;100.00
17525;BME280;40431;52.198;9.902;2024-02-21T11:05:43;100691.91;;;10.22;100.00
17525;BME280;40431;52.198;9.902;2024-02-21T11:08:16;100689.97;;;10.24;100.00
17525;BME280;40431;52.198;9.902;2024-02-21T11:10:46;100694.44;;;10.25;100.00
17525;BME280;40431;52.198;9.902;2024-02-21T11:13:14;100684.31;;;10.28;100.00
17525;BME280;40431;52.198;9.902;2024-02-21T11:15:42;100678.59;;;10.33;100.00
17525;BME280;40431;52.198;9.902;2024-02-21T11:18:23;100674.16;;;10.32;100.00
17525;BME280;40431;52.198;9.902;2024-02-21T11:20:51;100676.88;;;10.32;100.00
17525;BME280;40431;52.198;9.902;2024-02-21T11:23:25;100667.09;;;10.29;100.00
17525;BME280;40431;52.198;9.902;2024-02-21T11:25:52;100663.06;;;10.36;100.00
17525;BME280;40431;52.198;9.902;2024-02-21T11:28:25;100650.13;;;10.42;100.00
17525;BME280;40431;52.198;9.902;2024-02-21T11:30:51;100647.41;;;10.42;100.00
17525;BME280;40431;52.198;9.902;2024-02-21T11:33:22;100645.75;;;10.39;99.34
17525;BME280;40431;52.198;9.902;2024-02-21T11:35:48;100640.34;;;10.39;99.17
17525;BME280;40431;52.198;9.902;2024-02-21T11:38:16;100639.28;;;10.42;99.57
17525;BME280;40431;52.198;9.902;2024-02-21T11:40:44;100639.09;;;10.45;99.80
17525;BME280;40431;52.198;9.902;2024-02-21T11:43:11;100628.75;;;10.51;100.00
17525;BME280;40431;52.198;9.902;2024-02-21T11:45:38;100622.13;;;10.57;100.00
17525;BME280;40431;52.198;9.902;2024-02-21T11:48:07;100623.78;;;10.60;96.81
17525;BME280;40431;52.198;9.902;2024-02-21T11:50:39;100614.94;;;10.56;96.88
17525;BME280;40431;52.198;9.902;2024-02-21T11:53:09;100614.59;;;10.62;97.73
17525;BME280;40431;52.198;9.902;2024-02-21T11:55:40;100608.78;;;10.68;97.14
17525;BME280;40431;52.198;9.902;2024-02-21T11:58:08;100596.16;;;10.67;95.79
17525;BME280;40431;52.198;9.902;2024-02-21T12:00:35;100603.63;;;10.64;94.95
17525;BME280;40431;52.198;9.902;2024-02-21T12:03:05;100597.06;;;10.68;97.57
17525;BME280;40431;52.198;9.902;2024-02-21T12:05:33;100582.91;;;10.63;95.80
17525;BME280;40431;52.198;9.902;2024-02-21T12:08:04;100568.38;;;10.64;96.58
17525;BME280;40431;52.198;9.902;2024-02-21T12:10:32;100577.69;;;10.74;97.75
17525;BME280;40431;52.198;9.902;2024-02-21T12:13:07;100576.34;;;10.81;95.22
17525;BME280;40431;52.198;9.902;2024-02-21T12:15:36;100552.69;;;10.83;95.93
17525;BME280;40431;52.198;9.902;2024-02-21T12:18:04;100558.13;;;10.83;95.83
17525;BME280;40431;52.198;9.902;2024-02-21T12:20:32;100549.03;;;10.84;96.41
17525;BME280;40431;52.198;9.902;2024-02-21T12:23:04;100557.97;;;10.86;95.80
17525;BME280;40431;52.198;9.902;2024-02-21T12:25:31;100543.81;;;10.81;94.99
17525;BME280;40431;52.198;9.902;2024-02-21T12:28:04;100541.19;;;10.80;96.28
17525;BME280;40431;52.198;9.902;2024-02-21T12:30:32;100540.91;;;10.84;95.07
17525;BME280;40431;52.198;9.902;2024-02-21T12:33:01;100530.03;;;10.70;95.55
17525;BME280;40431;52.198;9.902;2024-02-21T12:35:30;100527.75;;;10.78;96.44
17525;BME280;40431;52.198;9.902;2024-02-21T12:38:01;100526.84;;;10.78;96.38
17525;BME280;40431;52.198;9.902;2024-02-21T12:40:30;100525.56;;;10.83;97.10
17525;BME280;40431;52.198;9.902;2024-02-21T12:43:02;100529.09;;;10.85;96.97
17525;BME280;40431;52.198;9.902;2024-02-21T12:45:41;100525.56;;;10.83;97.07
17525;BME280;40431;52.198;9.902;2024-02-21T12:48:10;100518.22;;;10.85;97.07
17525;BME280;40431;52.198;9.902;2024-02-21T12:50:43;100510.38;;;10.81;95.80
17525;BME280;40431;52.198;9.902;2024-02-21T12:53:14;100514.56;;;10.86;95.96
17525;BME280;40431;52.198;9.902;2024-02-21T12:55:43;100513.00;;;10.82;95.11
17525;BME280;40431;52.198;9.902;2024-02-21T12:58:12;100505.63;;;10.84;95.16
17525;BME280;40431;52.198;9.902;2024-02-21T13:00:43;100510.09;;;10.85;96.72